logo
Search for airport 
image banner adimage banner adimage banner ad
image banner ad

YWTHS - Waterhouse Island

Located in , Australia

ICAO - , IATA -

Data provided by Airmate  

General information

Coordinates: S40°48'38" E147°37'30"
Elevation is 145 feet MSL.
Magnetic variation is 14° East
View others Airports in Tasmania

Operational data

Special qualification required
Current time UTC:
Current local time:
Weather at : - ( 0 km )
METAR: CYKL 131557Z AUTO 15007KT 3SM BR OVC004 06/05 A2941 RMK SLP982
View NOTAMs / SUP AIP / TFR affecting this airport [VIEW]
Communications frequencies: [VIEW]

Runways:

RWY identifierQFULength (ft)Width (ft)SurfaceLDA (ft)
24257°131939DIRT
0677°131939DIRT

Airport contact information

Address: Australia

Satellite view of YWTHS